createdAt,value
2018-09-18T00:00:52.094Z,7.23
2018-09-18T00:03:20.438Z,6.77
2018-09-18T00:05:48.600Z,7.40
2018-09-18T00:08:16.648Z,7.90
2018-09-18T00:10:44.801Z,7.53
2018-09-18T00:13:13.044Z,7.60
2018-09-18T00:15:41.208Z,6.17
2018-09-18T00:18:09.225Z,7.70
2018-09-18T00:20:37.447Z,7.43
2018-09-18T00:23:05.642Z,7.40
2018-09-18T00:25:34.078Z,7.77
2018-09-18T00:28:02.115Z,7.40
2018-09-18T00:30:30.254Z,8.20
2018-09-18T00:32:58.329Z,7.93
2018-09-18T00:35:26.403Z,7.60
2018-09-18T00:37:55.173Z,6.87
2018-09-18T00:40:23.188Z,6.97
2018-09-18T00:42:51.266Z,7.67
2018-09-18T00:45:19.346Z,7.00
2018-09-18T00:47:47.450Z,7.30
2018-09-18T00:50:15.524Z,8.07
2018-09-18T00:52:43.532Z,7.20
2018-09-18T00:55:11.570Z,7.23
2018-09-18T00:57:39.610Z,6.67
2018-09-18T01:00:07.925Z,7.73
2018-09-18T01:02:35.939Z,7.97
2018-09-18T01:05:04.044Z,8.10
2018-09-18T01:07:32.139Z,8.77
2018-09-18T01:10:00.228Z,7.97
2018-09-18T01:12:28.245Z,7.97
2018-09-18T01:14:56.361Z,7.40
2018-09-18T01:17:24.542Z,7.37
2018-09-18T01:19:52.759Z,8.63
2018-09-18T01:22:20.739Z,7.80
2018-09-18T01:24:48.761Z,7.50
2018-09-18T01:27:16.871Z,7.77
2018-09-18T01:29:44.900Z,7.17
2018-09-18T01:32:12.900Z,8.47
2018-09-18T01:34:40.947Z,7.57
2018-09-18T01:37:08.994Z,8.00
2018-09-18T01:39:36.990Z,7.13
2018-09-18T01:42:05.374Z,7.60
2018-09-18T01:44:33.556Z,7.93
2018-09-18T01:47:01.604Z,7.70
2018-09-18T01:49:29.605Z,8.40
2018-09-18T01:51:57.689Z,8.10
2018-09-18T01:54:25.712Z,7.63
2018-09-18T01:56:53.857Z,7.83
2018-09-18T01:59:22.069Z,8.30
2018-09-18T02:01:50.137Z,7.97
2018-09-18T02:04:18.217Z,8.93
2018-09-18T02:06:46.336Z,8.40
2018-09-18T02:09:14.418Z,8.57
2018-09-18T02:11:42.430Z,9.73
2018-09-18T02:14:10.508Z,9.07
2018-09-18T02:16:38.572Z,7.93
2018-09-18T02:19:06.682Z,9.17
2018-09-18T02:21:35.067Z,8.60
2018-09-18T02:24:03.285Z,7.77
2018-09-18T02:26:31.669Z,8.97
2018-09-18T02:28:59.906Z,8.60
2018-09-18T02:31:27.963Z,8.07
2018-09-18T02:33:56.044Z,9.20
2018-09-18T02:36:24.113Z,9.00
2018-09-18T02:38:52.147Z,9.17
2018-09-18T02:41:20.248Z,8.80
2018-09-18T02:43:48.338Z,8.40
2018-09-18T02:46:16.511Z,8.63
2018-09-18T02:48:44.596Z,9.63
2018-09-18T02:51:12.644Z,9.50
2018-09-18T02:53:40.725Z,8.50
2018-09-18T02:56:08.792Z,9.00
2018-09-18T02:58:37.011Z,8.03
2018-09-18T03:01:05.045Z,8.93
2018-09-18T03:03:33.164Z,8.07
2018-09-18T03:06:01.172Z,8.33
2018-09-18T03:08:29.201Z,9.40
2018-09-18T03:10:57.263Z,8.27
2018-09-18T03:13:25.377Z,8.50
2018-09-18T03:15:53.634Z,9.50
2018-09-18T03:18:21.843Z,9.40
2018-09-18T03:20:50.039Z,9.27
2018-09-18T03:23:18.027Z,9.00
2018-09-18T03:25:46.077Z,9.57
2018-09-18T03:28:14.222Z,8.93
2018-09-18T03:30:42.285Z,9.77
2018-09-18T03:33:10.440Z,9.03
2018-09-18T03:35:38.550Z,8.60
2018-09-18T03:38:06.516Z,8.80
2018-09-18T03:40:34.509Z,9.23
2018-09-18T03:43:02.672Z,8.73
2018-09-18T03:45:30.733Z,8.87
2018-09-18T03:47:58.829Z,8.67
2018-09-18T03:50:26.853Z,8.33
2018-09-18T03:52:54.842Z,8.40
2018-09-18T03:55:22.885Z,9.50
2018-09-18T03:57:50.984Z,9.87
2018-09-18T04:00:19.008Z,8.53
2018-09-18T04:02:47.099Z,9.20
2018-09-18T04:05:15.123Z,9.03
2018-09-18T04:07:43.142Z,9.50
2018-09-18T04:10:11.165Z,9.03
2018-09-18T04:12:39.168Z,9.27
2018-09-18T04:15:07.256Z,9.40
2018-09-18T04:17:35.346Z,9.50
2018-09-18T04:20:03.559Z,9.00
2018-09-18T04:22:31.557Z,9.23
2018-09-18T04:24:59.587Z,9.83
2018-09-18T04:27:27.612Z,10.00
2018-09-18T04:29:55.601Z,9.17
2018-09-18T04:32:23.604Z,10.10
2018-09-18T04:34:51.633Z,8.50
2018-09-18T04:37:20.890Z,9.20
2018-09-18T04:39:48.890Z,10.33
2018-09-18T04:42:16.910Z,9.87
2018-09-18T04:44:44.983Z,8.73
2018-09-18T04:47:13.028Z,10.40
2018-09-18T04:49:41.079Z,9.20
2018-09-18T04:52:09.099Z,9.50
2018-09-18T04:54:37.425Z,9.70
2018-09-18T04:57:05.838Z,8.77
2018-09-18T04:59:33.903Z,8.33
2018-09-18T05:02:02.433Z,8.70
2018-09-18T05:04:30.463Z,9.30
2018-09-18T05:09:36.088Z,9.83
2018-09-18T05:12:04.248Z,9.23
2018-09-18T05:14:32.625Z,8.50
2018-09-18T05:17:01.390Z,9.40
2018-09-18T05:19:29.447Z,9.40
2018-09-18T05:21:57.627Z,10.30
2018-09-18T05:24:26.737Z,10.93
2018-09-18T05:26:55.977Z,10.10
2018-09-18T05:29:25.073Z,8.97
2018-09-18T05:31:53.140Z,10.87
2018-09-18T05:34:22.083Z,10.83
2018-09-18T05:36:50.459Z,10.67
2018-09-18T05:39:18.491Z,9.97
2018-09-18T05:41:47.534Z,10.17
2018-09-18T05:44:15.626Z,10.10
2018-09-18T05:46:44.033Z,9.80
2018-09-18T05:49:12.125Z,9.00
2018-09-18T05:51:41.686Z,9.63
2018-09-18T05:54:09.788Z,10.33
2018-09-18T05:56:37.830Z,10.07
2018-09-18T05:59:05.992Z,9.90
2018-09-18T06:01:34.147Z,12.67
2018-09-18T06:04:02.291Z,14.17
2018-09-18T06:06:30.357Z,17.57
2018-09-18T06:08:58.428Z,14.33
2018-09-18T06:11:26.567Z,13.03
2018-09-18T06:13:55.444Z,14.87
2018-09-18T06:16:23.558Z,12.67
2018-09-18T06:18:51.710Z,13.73
2018-09-18T06:21:19.844Z,13.10
2018-09-18T06:23:47.938Z,12.57
2018-09-18T06:26:16.091Z,13.93
2018-09-18T06:28:44.267Z,12.83
2018-09-18T06:31:12.281Z,13.50
2018-09-18T06:33:40.355Z,12.63
2018-09-18T06:36:08.556Z,12.10
2018-09-18T06:38:36.910Z,12.97
2018-09-18T06:41:05.056Z,12.10
2018-09-18T06:43:33.165Z,11.50
2018-09-18T06:46:01.510Z,12.40
2018-09-18T06:48:29.734Z,12.87
2018-09-18T06:50:57.833Z,12.83
2018-09-18T06:53:26.072Z,11.70
2018-09-18T06:55:54.225Z,11.43
2018-09-18T06:58:22.857Z,13.30
2018-09-18T07:00:50.898Z,13.00
2018-09-18T07:03:19.027Z,13.20
2018-09-18T07:05:47.154Z,12.80
2018-09-18T07:08:15.341Z,12.97
2018-09-18T07:10:43.431Z,12.87
2018-09-18T07:13:11.608Z,11.90
2018-09-18T07:15:39.965Z,12.03
2018-09-18T07:18:08.188Z,13.07
2018-09-18T07:20:37.016Z,12.80
2018-09-18T07:23:05.206Z,12.93
2018-09-18T07:25:33.447Z,13.63
2018-09-18T07:28:01.748Z,12.70
2018-09-18T07:30:29.913Z,14.30
2018-09-18T07:32:58.077Z,14.00
2018-09-18T07:35:26.385Z,12.10
2018-09-18T07:37:54.495Z,11.53
2018-09-18T07:40:22.605Z,12.10
2018-09-18T07:42:51.265Z,12.10
2018-09-18T07:45:19.406Z,13.27
2018-09-18T07:47:54.101Z,13.90
2018-09-18T07:50:22.171Z,11.97
2018-09-18T07:52:50.346Z,14.17
2018-09-18T07:55:18.466Z,11.93
2018-09-18T07:57:46.729Z,10.70
2018-09-18T08:00:14.936Z,10.87
2018-09-18T08:02:43.146Z,9.83
2018-09-18T08:05:11.313Z,9.47
2018-09-18T08:07:39.489Z,11.83
2018-09-18T08:10:07.609Z,10.90
2018-09-18T08:12:36.785Z,9.80
2018-09-18T08:15:06.004Z,9.73
2018-09-18T08:17:34.151Z,8.90
2018-09-18T08:20:02.346Z,9.30
2018-09-18T08:22:30.519Z,8.47
2018-09-18T08:24:58.762Z,8.67
2018-09-18T08:27:27.193Z,8.20
2018-09-18T08:29:55.331Z,8.70
2018-09-18T08:32:23.665Z,8.20
2018-09-18T08:34:51.816Z,8.87
2018-09-18T08:37:20.038Z,8.13
2018-09-18T08:39:48.356Z,8.30
2018-09-18T08:42:16.417Z,7.70
2018-09-18T08:44:44.588Z,6.97
2018-09-18T08:47:13.199Z,8.13
2018-09-18T08:49:41.382Z,7.53
2018-09-18T08:52:09.607Z,6.57
2018-09-18T08:54:38.260Z,6.87
2018-09-18T08:57:07.321Z,6.90
2018-09-18T08:59:35.359Z,6.80
2018-09-18T09:02:03.538Z,6.30
2018-09-18T09:04:31.707Z,6.40
2018-09-18T09:06:59.785Z,6.10
2018-09-18T09:09:28.063Z,5.70
2018-09-18T09:11:56.042Z,6.00
2018-09-18T09:14:24.839Z,6.30
2018-09-18T09:16:52.966Z,7.10
2018-09-18T09:19:21.076Z,6.33
2018-09-18T09:21:49.293Z,6.87
2018-09-18T09:24:17.359Z,6.40
2018-09-18T09:26:45.738Z,6.90
2018-09-18T09:29:13.824Z,6.20
2018-09-18T09:31:41.844Z,6.40
2018-09-18T09:34:09.898Z,6.03
2018-09-18T09:36:38.298Z,5.90
2018-09-18T09:39:09.355Z,6.00
2018-09-18T09:41:37.466Z,6.20
2018-09-18T09:44:05.711Z,6.20
2018-09-18T09:46:33.875Z,6.03
2018-09-18T09:49:02.339Z,7.17
2018-09-18T09:51:30.447Z,6.07
2018-09-18T09:53:58.696Z,5.97
2018-09-18T09:56:27.071Z,6.27
2018-09-18T09:58:55.170Z,6.67
2018-09-18T10:01:28.950Z,5.13
2018-09-18T10:03:57.033Z,6.37
2018-09-18T10:06:25.571Z,6.43
2018-09-18T10:08:53.654Z,6.30
2018-09-18T10:11:21.910Z,5.70
2018-09-18T10:13:50.022Z,5.90
2018-09-18T10:16:18.013Z,4.83
2018-09-18T10:18:46.178Z,5.57
2018-09-18T10:21:14.247Z,5.57
2018-09-18T10:23:42.429Z,6.10
2018-09-18T10:26:10.567Z,5.70
2018-09-18T10:28:38.657Z,5.67
2018-09-18T10:31:06.838Z,5.63
2018-09-18T10:33:34.934Z,5.50
2018-09-18T10:36:03.745Z,6.30
2018-09-18T10:38:31.873Z,8.77
2018-09-18T10:40:59.981Z,6.50
2018-09-18T10:43:28.137Z,6.50
2018-09-18T10:45:56.201Z,7.10
2018-09-18T10:48:24.267Z,5.57
2018-09-18T10:50:52.392Z,5.20
2018-09-18T10:53:20.593Z,5.47
2018-09-18T10:55:48.729Z,5.90
2018-09-18T10:58:16.775Z,6.53
2018-09-18T11:00:44.845Z,5.70
2018-09-18T11:03:12.997Z,6.10
2018-09-18T11:05:41.071Z,5.30
2018-09-18T11:08:09.400Z,5.57
2018-09-18T11:10:37.586Z,5.77
2018-09-18T11:13:05.727Z,6.07
2018-09-18T11:15:33.928Z,6.20
2018-09-18T11:18:02.063Z,6.10
2018-09-18T11:20:30.211Z,5.87
2018-09-18T11:22:58.281Z,5.83
2018-09-18T11:25:26.514Z,5.03
2018-09-18T11:27:54.617Z,6.47
2018-09-18T11:30:22.765Z,5.93
2018-09-18T11:32:51.088Z,5.33
2018-09-18T11:35:19.253Z,5.80
2018-09-18T11:37:47.412Z,5.17
2018-09-18T11:40:15.618Z,6.03
2018-09-18T11:42:43.797Z,5.60
2018-09-18T11:45:12.173Z,5.30
2018-09-18T11:47:40.416Z,5.87
2018-09-18T11:50:09.022Z,6.00
2018-09-18T11:52:37.162Z,5.90
2018-09-18T11:55:05.421Z,5.97
2018-09-18T11:57:33.998Z,5.60
2018-09-18T12:00:02.208Z,5.70
2018-09-18T12:02:30.362Z,5.97
2018-09-18T12:04:58.478Z,5.10
2018-09-18T12:07:26.594Z,5.10
2018-09-18T12:09:54.746Z,5.23
2018-09-18T12:12:23.041Z,5.47
2018-09-18T12:14:51.226Z,5.30
2018-09-18T12:17:19.404Z,5.73
2018-09-18T12:19:47.623Z,5.47
2018-09-18T12:22:15.869Z,4.87
2018-09-18T12:24:44.063Z,5.60
2018-09-18T12:27:12.295Z,5.60
2018-09-18T12:29:40.642Z,5.60
2018-09-18T12:32:09.133Z,5.27
2018-09-18T12:34:37.610Z,5.90
2018-09-18T12:37:05.815Z,5.73
2018-09-18T12:39:33.950Z,5.53
2018-09-18T12:42:02.340Z,5.90
2018-09-18T12:44:30.166Z,5.87
2018-09-18T12:46:58.298Z,5.40
2018-09-18T12:49:26.593Z,5.53
2018-09-18T12:51:54.640Z,5.23
2018-09-18T12:54:22.741Z,5.23
2018-09-18T12:56:50.850Z,5.30
2018-09-18T12:59:19.288Z,5.53
2018-09-18T13:01:47.394Z,6.37
2018-09-18T13:04:15.643Z,6.10
2018-09-18T13:06:43.845Z,5.60
2018-09-18T13:09:12.823Z,6.23
2018-09-18T13:11:41.077Z,5.90
2018-09-18T13:14:09.428Z,5.50
2018-09-18T13:16:37.501Z,5.40
2018-09-18T13:19:06.155Z,5.40
2018-09-18T13:21:34.274Z,6.00
2018-09-18T13:24:02.324Z,6.90
2018-09-18T13:26:30.566Z,5.63
2018-09-18T13:28:58.806Z,5.37
2018-09-18T13:31:27.050Z,5.30
2018-09-18T13:33:55.421Z,5.03
2018-09-18T13:36:23.630Z,5.20
2018-09-18T13:38:51.887Z,6.20
2018-09-18T13:41:20.107Z,5.50
2018-09-18T13:43:48.156Z,5.40
2018-09-18T13:46:16.483Z,5.70
2018-09-18T13:48:44.705Z,5.97
2018-09-18T13:51:13.020Z,5.90
2018-09-18T13:53:41.160Z,6.00
2018-09-18T13:56:09.341Z,5.30
2018-09-18T13:58:37.446Z,5.93
2018-09-18T14:01:05.656Z,6.03
2018-09-18T14:03:33.768Z,5.40
2018-09-18T14:06:01.951Z,5.20
2018-09-18T14:08:30.017Z,5.80
2018-09-18T14:10:58.123Z,6.10
2018-09-18T14:13:26.926Z,5.53
2018-09-18T14:15:55.059Z,5.27
2018-09-18T14:18:23.205Z,6.17
2018-09-18T14:20:51.448Z,5.40
2018-09-18T14:23:19.617Z,5.00
2018-09-18T14:25:47.815Z,5.40
2018-09-18T14:28:16.155Z,5.50
2018-09-18T14:30:44.236Z,5.83
2018-09-18T14:33:12.820Z,5.50
2018-09-18T14:35:42.376Z,5.60
2018-09-18T14:38:10.543Z,6.10
2018-09-18T14:40:38.832Z,6.20
2018-09-18T14:43:06.904Z,5.60
2018-09-18T14:45:35.000Z,5.10
2018-09-18T14:48:03.170Z,5.70
2018-09-18T14:50:31.281Z,5.20
2018-09-18T14:52:59.436Z,5.37
2018-09-18T14:55:27.621Z,6.10
2018-09-18T14:57:56.083Z,5.57
2018-09-18T15:00:24.423Z,5.90
2018-09-18T15:02:52.671Z,5.03
2018-09-18T15:05:20.738Z,4.90
2018-09-18T15:07:48.860Z,4.73
2018-09-18T15:10:17.205Z,5.90
2018-09-18T15:12:45.324Z,5.60
2018-09-18T15:15:13.945Z,5.37
2018-09-18T15:17:41.967Z,5.00
2018-09-18T15:20:10.164Z,4.90
2018-09-18T15:22:38.305Z,5.70
2018-09-18T15:25:06.620Z,5.47
2018-09-18T15:27:34.822Z,5.63
2018-09-18T15:30:02.933Z,5.03
2018-09-18T15:32:31.870Z,5.60
2018-09-18T15:35:00.013Z,5.13
2018-09-18T15:37:28.487Z,4.90
2018-09-18T15:39:57.945Z,5.10
2018-09-18T15:42:26.858Z,4.83
2018-09-18T15:44:55.122Z,4.97
2018-09-18T15:47:23.391Z,5.90
2018-09-18T15:49:51.864Z,5.23
2018-09-18T15:52:20.034Z,5.80
2018-09-18T15:54:48.095Z,6.00
2018-09-18T15:57:16.406Z,5.63
2018-09-18T15:59:44.525Z,5.10
2018-09-18T16:02:12.799Z,6.33
2018-09-18T16:04:41.043Z,5.60
2018-09-18T16:07:09.213Z,5.67
2018-09-18T16:09:37.442Z,5.37
2018-09-18T16:12:06.220Z,5.30
2018-09-18T16:14:34.636Z,5.27
2018-09-18T16:17:02.934Z,5.03
2018-09-18T16:19:31.203Z,4.50
2018-09-18T16:21:59.399Z,4.83
2018-09-18T16:24:27.582Z,4.77
2018-09-18T16:26:55.736Z,5.43
2018-09-18T16:29:24.351Z,5.60
2018-09-18T16:31:52.578Z,4.80
2018-09-18T16:34:20.789Z,5.07
2018-09-18T16:36:48.981Z,5.13
2018-09-18T16:39:17.234Z,4.90
2018-09-18T16:41:52.071Z,5.70
2018-09-18T16:44:20.162Z,4.87
2018-09-18T16:46:48.383Z,5.50
2018-09-18T16:49:16.687Z,5.13
2018-09-18T16:51:44.832Z,4.97
2018-09-18T16:54:13.038Z,5.27
2018-09-18T16:56:41.252Z,5.50
2018-09-18T16:59:09.471Z,4.90
2018-09-18T17:01:37.617Z,5.80
2018-09-18T17:04:06.049Z,5.70
2018-09-18T17:06:34.297Z,5.80
2018-09-18T17:09:02.583Z,5.17
2018-09-18T17:11:30.896Z,5.57
2018-09-18T17:13:59.026Z,4.73
2018-09-18T17:16:27.250Z,5.30
2018-09-18T17:18:55.392Z,5.17
2018-09-18T17:21:23.561Z,5.10
2018-09-18T17:23:51.754Z,5.80
2018-09-18T17:26:19.914Z,5.30
2018-09-18T17:28:48.316Z,5.40
2018-09-18T17:31:16.321Z,5.23
2018-09-18T17:33:44.860Z,5.80
2018-09-18T17:36:13.138Z,5.70
2018-09-18T17:38:41.414Z,5.50
2018-09-18T17:41:09.649Z,5.63
2018-09-18T17:43:37.967Z,5.97
2018-09-18T17:46:06.363Z,5.70
2018-09-18T17:48:34.540Z,6.30
2018-09-18T17:51:02.816Z,5.90
2018-09-18T17:53:31.044Z,5.67
2018-09-18T17:56:00.099Z,5.83
2018-09-18T17:58:28.353Z,5.57
2018-09-18T18:00:59.513Z,6.20
2018-09-18T18:03:28.715Z,6.50
2018-09-18T18:05:56.926Z,6.07
2018-09-18T18:08:25.171Z,6.03
2018-09-18T18:10:53.726Z,6.80
2018-09-18T18:13:21.970Z,7.60
2018-09-18T18:15:50.449Z,7.50
2018-09-18T18:18:18.713Z,6.17
2018-09-18T18:20:47.269Z,7.23
2018-09-18T18:23:22.184Z,6.07
2018-09-18T18:25:50.451Z,6.17
2018-09-18T18:28:19.535Z,6.37
2018-09-18T18:30:47.874Z,6.60
2018-09-18T18:33:16.030Z,6.50
2018-09-18T18:35:44.278Z,6.27
2018-09-18T18:38:12.465Z,6.43
2018-09-18T18:40:42.180Z,6.23
2018-09-18T18:43:10.403Z,6.50
2018-09-18T18:45:38.777Z,6.80
2018-09-18T18:48:07.820Z,6.50
2018-09-18T18:50:35.899Z,6.20
2018-09-18T18:53:04.214Z,6.33
2018-09-18T18:55:32.453Z,6.07
2018-09-18T18:58:00.885Z,5.63
2018-09-18T19:00:29.281Z,6.20
2018-09-18T19:02:57.532Z,6.47
2018-09-18T19:05:26.091Z,6.70
2018-09-18T19:07:54.773Z,5.83
2018-09-18T19:10:23.011Z,6.30
2018-09-18T19:12:51.365Z,6.20
2018-09-18T19:15:19.872Z,6.43
2018-09-18T19:17:48.293Z,6.43
2018-09-18T19:20:16.774Z,6.77
2018-09-18T19:22:45.109Z,6.00
2018-09-18T19:25:13.466Z,5.53
2018-09-18T19:27:41.760Z,7.00
2018-09-18T19:30:10.040Z,7.33
2018-09-18T19:32:38.591Z,6.97
2018-09-18T19:35:07.443Z,6.77
2018-09-18T19:37:37.355Z,6.47
2018-09-18T19:40:07.042Z,6.70
2018-09-18T19:42:35.895Z,7.83
2018-09-18T19:45:04.970Z,7.67
2018-09-18T19:47:34.457Z,7.47
2018-09-18T19:50:03.114Z,7.67
2018-09-18T19:52:32.026Z,7.80
2018-09-18T19:55:01.986Z,7.20
2018-09-18T19:57:30.779Z,13.20
2018-09-18T20:00:00.022Z,12.37
2018-09-18T20:02:29.401Z,7.37
2018-09-18T20:04:57.807Z,6.90
2018-09-18T20:07:26.095Z,6.83
2018-09-18T20:09:54.347Z,9.67
2018-09-18T20:12:23.435Z,7.00
2018-09-18T20:14:51.721Z,8.10
2018-09-18T20:17:19.931Z,7.70
2018-09-18T20:19:48.232Z,7.47
2018-09-18T20:22:17.097Z,7.83
2018-09-18T20:24:45.418Z,8.03
2018-09-18T20:27:14.213Z,9.10
2018-09-18T20:29:42.548Z,7.97
2018-09-18T20:32:10.687Z,7.97
2018-09-18T20:34:39.016Z,8.90
2018-09-18T20:37:07.279Z,8.20
2018-09-18T20:39:35.660Z,9.67
2018-09-18T20:42:03.870Z,9.23
2018-09-18T20:44:32.120Z,9.40
2018-09-18T20:47:00.385Z,8.70
2018-09-18T20:49:28.976Z,9.13
2018-09-18T20:51:57.166Z,7.57
2018-09-18T20:54:25.645Z,7.63
2018-09-18T20:56:53.864Z,8.40
2018-09-18T20:59:22.119Z,8.70
2018-09-18T21:01:50.324Z,8.87
2018-09-18T21:04:18.523Z,9.50
2018-09-18T21:06:46.766Z,9.47
2018-09-18T21:09:14.976Z,9.40
2018-09-18T21:11:43.166Z,8.70
2018-09-18T21:14:11.337Z,8.70
2018-09-18T21:16:39.491Z,8.47
2018-09-18T21:19:07.750Z,8.60
2018-09-18T21:21:35.919Z,9.63
2018-09-18T21:24:03.987Z,9.63
2018-09-18T21:26:32.115Z,10.00
2018-09-18T21:29:00.237Z,8.63
2018-09-18T21:31:28.387Z,10.33
2018-09-18T21:33:56.563Z,9.03
2018-09-18T21:36:24.706Z,9.90
2018-09-18T21:38:52.810Z,9.43
2018-09-18T21:41:21.089Z,9.57
2018-09-18T21:43:49.314Z,9.57
2018-09-18T21:46:17.526Z,8.30
2018-09-18T21:48:45.758Z,8.80
2018-09-18T21:51:13.913Z,8.70
2018-09-18T21:53:42.031Z,9.20
2018-09-18T21:56:10.340Z,8.83
2018-09-18T21:58:38.489Z,8.27
2018-09-18T22:01:06.978Z,8.80
2018-09-18T22:03:35.434Z,7.57
2018-09-18T22:06:04.824Z,8.87
2018-09-18T22:08:33.002Z,7.67
2018-09-18T22:11:01.255Z,8.20
2018-09-18T22:13:29.963Z,7.57
2018-09-18T22:15:58.111Z,7.50
2018-09-18T22:18:26.248Z,7.03
2018-09-18T22:20:55.166Z,6.50
2018-09-18T22:23:25.387Z,7.20
2018-09-18T22:25:54.499Z,6.80
2018-09-18T22:28:22.611Z,7.20
2018-09-18T22:30:50.723Z,7.20
2018-09-18T22:33:19.245Z,7.10
2018-09-18T22:35:48.442Z,6.97
2018-09-18T22:38:16.550Z,6.43
2018-09-18T22:40:44.847Z,7.10
2018-09-18T22:43:12.957Z,6.50
2018-09-18T22:45:42.308Z,7.50
2018-09-18T22:48:10.413Z,6.90
2018-09-18T22:50:38.479Z,7.77
2018-09-18T22:53:06.566Z,7.47
2018-09-18T22:55:34.629Z,6.80
2018-09-18T22:58:02.939Z,7.20
2018-09-18T23:00:31.048Z,7.30
2018-09-18T23:02:59.940Z,7.60
2018-09-18T23:05:28.083Z,7.00
2018-09-18T23:07:56.214Z,7.87
2018-09-18T23:10:24.263Z,7.57
2018-09-18T23:12:53.019Z,8.50
2018-09-18T23:15:21.447Z,8.60
2018-09-18T23:17:49.783Z,8.47
2018-09-18T23:20:18.627Z,8.77
2018-09-18T23:22:46.696Z,8.10
2018-09-18T23:25:14.861Z,9.90
2018-09-18T23:27:43.099Z,9.20
2018-09-18T23:30:11.234Z,9.40
2018-09-18T23:32:39.303Z,9.40
2018-09-18T23:35:07.423Z,9.93
2018-09-18T23:37:35.707Z,10.10
2018-09-18T23:40:03.916Z,10.57
2018-09-18T23:42:33.573Z,9.20
2018-09-18T23:45:01.957Z,10.33
2018-09-18T23:47:30.187Z,10.70
2018-09-18T23:49:58.588Z,11.00
2018-09-18T23:52:26.886Z,10.47
2018-09-18T23:54:55.129Z,10.20
2018-09-18T23:57:23.189Z,10.70
2018-09-18T23:59:51.368Z,9.77
